KCCA/CCA METAR and TAF weather

Enter ICAO airport designator
Station Type Date Time Source
KCCA METAR 2019/10/16 19:15 UTC NOAA

KCCA 161915Z AUTO 28004G12KT 10SM CLR 18/04 A3013 RMK AO2


Station Type Date Time Source
KCCA Decoded METAR 2019/10/16 19:15 UTC NOAA

Station name not available
Oct 16, 2019 - 03:15 PM EDT / 2019.10.16 1915 UTC
Wind: from the W (280 degrees) at 5 MPH (4 KT) gusting to 14 MPH (12 KT):0
Visibility: 10 mile(s):0
Sky conditions: clear
Temperature: 64 F (18 C)
Dew Point: 39 F (4 C)
Relative Humidity: 39%
Pressure (altimeter): 30.13 in. Hg (1020 hPa)
ob: KCCA 161915Z AUTO 28004G12KT 10SM CLR 18/04 A3013 RMK AO2
cycle: 19

Station Type Date Time Source
KCCA TAF UTC NOAA

Error!

Example: see airport list